createdAt,value
2022-11-22T00:00:55.092Z,91.58
2022-11-22T00:03:23.354Z,91.46
2022-11-22T00:05:51.159Z,89.97
2022-11-22T00:08:19.008Z,89.76
2022-11-22T00:10:50.152Z,89.20
2022-11-22T00:13:18.743Z,88.83
2022-11-22T00:16:15.813Z,90.73
2022-11-22T00:18:44.085Z,88.91
2022-11-22T00:21:11.940Z,91.51
2022-11-22T00:23:39.712Z,91.03
2022-11-22T00:26:12.490Z,89.98
2022-11-22T00:28:40.223Z,92.07
2022-11-22T00:31:08.490Z,91.31
2022-11-22T00:33:39.136Z,92.83
2022-11-22T00:36:07.188Z,91.56
2022-11-22T00:38:35.252Z,90.98
2022-11-22T00:41:03.171Z,90.60
2022-11-22T00:43:31.833Z,90.81
2022-11-22T00:46:00.682Z,90.77
2022-11-22T00:48:28.612Z,90.92
2022-11-22T00:50:56.469Z,87.88
2022-11-22T00:53:24.752Z,90.80
2022-11-22T00:55:52.640Z,90.82
2022-11-22T00:58:20.477Z,89.37
2022-11-22T01:00:54.995Z,89.64
2022-11-22T01:03:24.829Z,91.12
2022-11-22T01:05:53.274Z,89.84
2022-11-22T01:08:21.133Z,90.87
2022-11-22T01:10:48.977Z,90.05
2022-11-22T01:13:17.165Z,90.29
2022-11-22T01:15:44.941Z,90.33
2022-11-22T01:18:12.740Z,90.99
2022-11-22T01:20:41.722Z,89.74
2022-11-22T01:23:09.519Z,89.38
2022-11-22T01:25:37.174Z,89.51
2022-11-22T01:28:05.587Z,88.07
2022-11-22T01:30:33.384Z,90.80
2022-11-22T01:33:01.032Z,88.74
2022-11-22T01:35:29.394Z,89.98
2022-11-22T01:37:57.202Z,89.62
2022-11-22T01:40:25.086Z,90.83
2022-11-22T01:42:56.024Z,90.26
2022-11-22T01:45:30.491Z,88.98
2022-11-22T01:48:13.781Z,89.26
2022-11-22T01:50:44.503Z,90.14
2022-11-22T01:53:28.104Z,90.25
2022-11-22T01:55:56.648Z,90.21
2022-11-22T01:58:27.202Z,90.05
2022-11-22T02:00:56.356Z,89.03
2022-11-22T02:03:25.803Z,88.45
2022-11-22T02:05:54.606Z,88.44
2022-11-22T02:08:35.125Z,88.78
2022-11-22T02:11:04.419Z,87.94
2022-11-22T02:13:36.530Z,89.05
2022-11-22T02:16:05.236Z,89.28
2022-11-22T02:18:37.686Z,90.48
2022-11-22T02:21:06.202Z,89.80
2022-11-22T02:23:53.319Z,88.93
2022-11-22T02:26:24.501Z,88.91
2022-11-22T02:28:53.791Z,88.70
2022-11-22T02:31:43.593Z,88.27
2022-11-22T02:34:13.115Z,87.70
2022-11-22T02:36:51.790Z,88.83
2022-11-22T02:39:26.761Z,88.65
2022-11-22T02:41:57.241Z,87.49
2022-11-22T02:44:25.403Z,88.61
2022-11-22T02:46:56.145Z,87.54
2022-11-22T02:49:25.757Z,87.86
2022-11-22T02:51:54.266Z,88.37
2022-11-22T02:54:22.464Z,87.58
2022-11-22T02:56:50.805Z,87.45
2022-11-22T02:59:21.834Z,87.77
2022-11-22T03:01:50.206Z,86.88
2022-11-22T03:04:26.816Z,87.02
2022-11-22T03:07:00.000Z,87.11
2022-11-22T03:09:32.511Z,87.53
2022-11-22T03:12:01.183Z,87.34
2022-11-22T03:14:29.112Z,87.14
2022-11-22T03:16:56.911Z,88.00
2022-11-22T03:19:25.143Z,87.79
2022-11-22T03:21:53.078Z,87.67
2022-11-22T03:24:21.045Z,87.48
2022-11-22T03:26:50.442Z,87.47
2022-11-22T03:29:18.545Z,87.10
2022-11-22T03:31:46.496Z,87.07
2022-11-22T03:34:15.476Z,87.74
2022-11-22T03:36:43.527Z,87.05
2022-11-22T03:39:11.526Z,86.76
2022-11-22T03:41:43.028Z,87.65
2022-11-22T03:44:10.933Z,87.21
2022-11-22T03:46:39.125Z,88.15
2022-11-22T03:49:07.053Z,86.91
2022-11-22T03:51:34.881Z,87.00
2022-11-22T03:54:03.905Z,87.59
2022-11-22T03:56:31.782Z,88.13
2022-11-22T03:59:02.620Z,87.33
2022-11-22T04:01:30.902Z,86.90
2022-11-22T04:03:59.101Z,87.18
2022-11-22T04:06:26.952Z,86.72
2022-11-22T04:08:54.775Z,86.68
2022-11-22T04:11:23.064Z,86.75
2022-11-22T04:14:09.490Z,87.01
2022-11-22T04:16:37.583Z,86.90
2022-11-22T04:19:05.408Z,87.32
2022-11-22T04:21:36.456Z,86.76
2022-11-22T04:24:30.108Z,86.75
2022-11-22T04:26:58.618Z,86.85
2022-11-22T04:29:26.923Z,87.16
2022-11-22T04:32:13.488Z,87.24
2022-11-22T04:34:41.672Z,87.39
2022-11-22T04:37:09.492Z,88.21
2022-11-22T04:39:37.292Z,87.17
2022-11-22T04:42:24.260Z,87.15
2022-11-22T04:44:52.262Z,87.02
2022-11-22T04:47:44.978Z,87.64
2022-11-22T04:50:37.192Z,87.30
2022-11-22T04:53:05.347Z,87.40
2022-11-22T04:55:33.204Z,87.02
2022-11-22T04:58:01.209Z,87.51
2022-11-22T05:00:30.459Z,87.17
2022-11-22T05:02:59.261Z,87.15
2022-11-22T05:05:27.983Z,87.74
2022-11-22T05:07:59.837Z,87.82
2022-11-22T05:10:27.741Z,87.12
2022-11-22T05:12:58.653Z,87.78
2022-11-22T05:15:26.790Z,87.58
2022-11-22T05:17:54.575Z,87.52
2022-11-22T05:20:22.425Z,87.37
2022-11-22T05:23:08.911Z,87.11
2022-11-22T05:25:36.587Z,87.12
2022-11-22T05:28:04.928Z,86.96
2022-11-22T05:30:32.770Z,87.24
2022-11-22T05:33:00.564Z,87.45
2022-11-22T05:35:29.046Z,88.09
2022-11-22T05:37:59.708Z,87.81
2022-11-22T05:40:28.110Z,87.15
2022-11-22T05:42:58.539Z,87.87
2022-11-22T05:45:26.576Z,88.08
2022-11-22T05:47:54.404Z,88.44
2022-11-22T05:50:23.356Z,88.05
2022-11-22T05:53:03.206Z,87.37
2022-11-22T05:55:31.287Z,87.33
2022-11-22T05:58:02.611Z,87.81
2022-11-22T06:00:40.056Z,87.71
2022-11-22T06:03:08.306Z,88.37
2022-11-22T06:05:36.187Z,87.51
2022-11-22T06:08:04.244Z,87.82
2022-11-22T06:10:34.681Z,87.97
2022-11-22T06:13:02.588Z,87.85
2022-11-22T06:15:30.902Z,87.85
2022-11-22T06:17:59.031Z,88.17
2022-11-22T06:20:27.311Z,88.18
2022-11-22T06:22:55.300Z,87.92
2022-11-22T06:25:23.624Z,88.18
2022-11-22T06:27:51.722Z,88.09
2022-11-22T06:30:19.564Z,88.02
2022-11-22T06:32:50.800Z,88.03
2022-11-22T06:35:18.679Z,88.07
2022-11-22T06:37:46.511Z,88.24
2022-11-22T06:40:15.825Z,88.26
2022-11-22T06:42:43.544Z,87.97
2022-11-22T06:45:11.748Z,88.10
2022-11-22T06:47:40.057Z,88.31
2022-11-22T06:50:08.265Z,88.48
2022-11-22T06:52:36.002Z,88.70
2022-11-22T06:55:08.016Z,88.10
2022-11-22T06:57:36.516Z,88.17
2022-11-22T07:00:05.051Z,87.85
2022-11-22T07:02:33.137Z,88.18
2022-11-22T07:05:24.637Z,87.74
2022-11-22T07:07:49.092Z,88.20
2022-11-22T07:10:17.122Z,88.10
2022-11-22T07:12:44.908Z,88.40
2022-11-22T07:15:13.215Z,88.18
2022-11-22T07:17:41.017Z,88.05
2022-11-22T07:20:09.361Z,88.21
2022-11-22T07:22:37.715Z,87.89
2022-11-22T07:25:06.054Z,88.34
2022-11-22T07:27:33.827Z,88.29
2022-11-22T07:30:02.092Z,88.38
2022-11-22T07:32:30.874Z,88.38
2022-11-22T07:35:01.620Z,88.75
2022-11-22T07:37:34.914Z,88.42
2022-11-22T07:40:02.712Z,88.60
2022-11-22T07:42:30.935Z,88.42
2022-11-22T07:45:01.545Z,88.50
2022-11-22T07:47:32.553Z,88.22
2022-11-22T07:50:00.793Z,88.30
2022-11-22T07:52:28.663Z,89.41
2022-11-22T07:54:56.437Z,87.83
2022-11-22T07:57:24.722Z,88.26
2022-11-22T07:59:52.462Z,88.55
2022-11-22T08:02:20.269Z,89.02
2022-11-22T08:04:48.537Z,88.41
2022-11-22T08:07:16.365Z,88.32
2022-11-22T08:09:47.098Z,88.54
2022-11-22T08:12:15.281Z,88.57
2022-11-22T08:14:43.247Z,88.54
2022-11-22T08:17:11.110Z,88.75
2022-11-22T08:19:39.552Z,88.47
2022-11-22T08:22:07.427Z,88.64
2022-11-22T08:24:35.359Z,88.86
2022-11-22T08:27:03.519Z,88.97
2022-11-22T08:29:31.574Z,88.65
2022-11-22T08:31:59.500Z,88.72
2022-11-22T08:34:27.674Z,88.55
2022-11-22T08:36:55.465Z,89.13
2022-11-22T08:39:23.189Z,88.85
2022-11-22T08:41:54.563Z,88.95
2022-11-22T08:44:25.934Z,89.04
2022-11-22T08:46:54.085Z,89.56
2022-11-22T08:49:23.157Z,89.15
2022-11-22T08:51:51.416Z,88.91
2022-11-22T08:54:19.697Z,88.88
2022-11-22T08:56:47.587Z,89.49
2022-11-22T08:59:15.476Z,89.24
2022-11-22T09:01:43.849Z,88.94
2022-11-22T09:04:11.783Z,89.72
2022-11-22T09:09:37.232Z,89.48
2022-11-22T09:12:05.778Z,89.27
2022-11-22T09:14:33.981Z,88.01
2022-11-22T09:17:01.879Z,88.19
2022-11-22T09:19:30.069Z,88.81
2022-11-22T09:21:58.538Z,88.66
2022-11-22T09:24:29.158Z,89.23
2022-11-22T09:26:57.032Z,89.09
2022-11-22T09:29:26.667Z,89.25
2022-11-22T09:31:56.365Z,90.73
2022-11-22T09:34:24.176Z,89.32
2022-11-22T09:36:52.300Z,89.10
2022-11-22T09:39:20.051Z,89.29
2022-11-22T09:42:02.309Z,90.23
2022-11-22T09:44:41.583Z,90.25
2022-11-22T09:47:22.348Z,89.32
2022-11-22T09:50:15.395Z,89.27
2022-11-22T09:52:55.302Z,89.62
2022-11-22T09:55:41.483Z,91.27
2022-11-22T09:58:21.175Z,89.59
2022-11-22T10:00:52.184Z,89.53
2022-11-22T10:03:38.851Z,89.76
2022-11-22T10:06:14.961Z,90.41
2022-11-22T10:09:04.307Z,89.38
2022-11-22T10:12:00.032Z,89.57
2022-11-22T10:14:51.184Z,90.04
2022-11-22T10:17:29.516Z,89.89
2022-11-22T10:20:18.852Z,89.34
2022-11-22T10:22:47.440Z,89.24
2022-11-22T10:25:17.754Z,89.24
2022-11-22T10:27:57.614Z,89.36
2022-11-22T10:30:39.137Z,89.95
2022-11-22T10:33:52.911Z,90.13
2022-11-22T10:36:28.563Z,89.82
2022-11-22T10:39:11.364Z,90.86
2022-11-22T10:42:13.611Z,89.66
2022-11-22T10:44:51.916Z,90.18
2022-11-22T10:47:55.191Z,89.53
2022-11-22T10:50:41.201Z,89.85
2022-11-22T10:53:15.092Z,90.05
2022-11-22T10:56:14.289Z,90.01
2022-11-22T10:58:57.776Z,91.52
2022-11-22T11:01:25.359Z,90.11
2022-11-22T11:03:58.541Z,90.17
2022-11-22T11:06:49.933Z,90.05
2022-11-22T11:12:29.319Z,90.21
2022-11-22T11:15:04.830Z,90.14
2022-11-22T11:17:37.271Z,90.79
2022-11-22T11:20:22.264Z,90.34
2022-11-22T11:25:41.096Z,90.58
2022-11-22T11:28:24.270Z,90.48
2022-11-22T11:31:09.201Z,90.47
2022-11-22T11:33:39.421Z,90.51
2022-11-22T11:36:22.332Z,90.73
2022-11-22T11:38:55.865Z,92.49
2022-11-22T11:41:40.323Z,90.53
2022-11-22T11:44:29.615Z,90.67
2022-11-22T11:47:00.946Z,90.79
2022-11-22T11:49:34.742Z,90.79
2022-11-22T11:52:08.517Z,91.34
2022-11-22T11:54:40.936Z,90.95
2022-11-22T11:57:29.552Z,90.97
2022-11-22T12:00:03.311Z,90.93
2022-11-22T12:02:43.117Z,90.98
2022-11-22T12:05:14.027Z,90.98
2022-11-22T12:07:48.145Z,91.30
2022-11-22T12:10:53.490Z,91.26
2022-11-22T12:14:12.383Z,91.35
2022-11-22T12:16:40.586Z,90.82
2022-11-22T12:19:36.746Z,92.29
2022-11-22T12:22:48.250Z,91.06
2022-11-22T12:25:33.217Z,91.15
2022-11-22T12:28:20.370Z,91.96
2022-11-22T12:31:16.160Z,90.87
2022-11-22T12:33:56.548Z,90.98
2022-11-22T12:37:01.161Z,91.01
2022-11-22T12:39:30.122Z,91.00
2022-11-22T12:42:24.655Z,90.97
2022-11-22T12:44:59.108Z,91.05
2022-11-22T12:47:31.954Z,91.23
2022-11-22T12:50:35.769Z,91.17
2022-11-22T12:53:09.440Z,91.27
2022-11-22T12:56:02.403Z,91.15
2022-11-22T12:58:40.505Z,91.55
2022-11-22T13:01:26.712Z,91.93
2022-11-22T13:04:19.720Z,91.85
2022-11-22T13:06:58.322Z,92.05
2022-11-22T13:09:38.933Z,92.09
2022-11-22T13:12:13.717Z,91.76
2022-11-22T13:14:56.077Z,91.71
2022-11-22T13:17:26.739Z,91.57
2022-11-22T13:20:00.201Z,91.76
2022-11-22T13:22:33.170Z,91.64
2022-11-22T13:25:10.170Z,91.64
2022-11-22T13:27:45.500Z,91.90
2022-11-22T13:30:25.871Z,91.75
2022-11-22T13:32:57.094Z,91.50
2022-11-22T13:35:33.184Z,91.96
2022-11-22T13:38:17.632Z,92.79
2022-11-22T13:40:52.726Z,92.42
2022-11-22T13:43:22.665Z,91.56
2022-11-22T13:45:55.395Z,91.54
2022-11-22T13:48:42.156Z,91.46
2022-11-22T13:51:17.312Z,91.25
2022-11-22T13:53:48.211Z,91.54
2022-11-22T13:56:15.887Z,92.38
2022-11-22T13:58:52.365Z,91.51
2022-11-22T14:01:36.263Z,91.93
2022-11-22T14:04:20.002Z,91.67
2022-11-22T14:06:49.395Z,91.70
2022-11-22T14:09:38.270Z,91.84
2022-11-22T14:12:26.352Z,91.78
2022-11-22T14:15:22.434Z,92.02
2022-11-22T14:18:09.226Z,92.25
2022-11-22T14:21:03.089Z,91.68
2022-11-22T14:23:30.975Z,91.82
2022-11-22T14:26:22.607Z,92.64
2022-11-22T14:29:16.320Z,91.83
2022-11-22T14:31:58.542Z,91.58
2022-11-22T14:34:28.232Z,92.23
2022-11-22T14:37:14.777Z,91.56
2022-11-22T14:39:56.021Z,91.71
2022-11-22T14:42:37.351Z,91.78
2022-11-22T14:45:11.327Z,91.64
2022-11-22T14:47:41.555Z,91.51
2022-11-22T14:50:39.706Z,91.77
2022-11-22T14:53:38.266Z,91.49
2022-11-22T14:56:25.312Z,91.41
2022-11-22T14:59:17.871Z,91.70
2022-11-22T15:02:07.093Z,91.25
2022-11-22T15:09:11.863Z,91.37
2022-11-22T15:09:24.043Z,93.62
2022-11-22T15:11:45.313Z,92.51
2022-11-22T15:14:28.513Z,92.89
2022-11-22T15:57:28.868Z,91.68
2022-11-22T15:59:57.647Z,91.96
2022-11-22T16:02:31.127Z,92.25
2022-11-22T16:06:08.488Z,92.24
2022-11-22T16:07:57.799Z,91.90
2022-11-22T16:10:40.013Z,91.97
2022-11-22T16:13:20.012Z,92.15
2022-11-22T16:16:06.727Z,92.15
2022-11-22T16:18:34.636Z,92.18
2022-11-22T16:21:11.840Z,91.91
2022-11-22T16:23:41.238Z,91.94
2022-11-22T16:26:22.306Z,92.27
2022-11-22T16:28:51.767Z,91.98
2022-11-22T16:31:32.694Z,91.70
2022-11-22T16:34:00.683Z,91.73
2022-11-22T16:36:30.390Z,91.91
2022-11-22T16:38:58.428Z,91.68
2022-11-22T16:41:28.925Z,91.73
2022-11-22T16:44:01.239Z,92.18
2022-11-22T16:46:29.159Z,92.16
2022-11-22T16:49:00.090Z,92.02
2022-11-22T16:51:29.852Z,91.93
2022-11-22T16:54:08.363Z,93.72
2022-11-22T16:56:36.357Z,93.37
2022-11-22T16:59:09.630Z,92.84
2022-11-22T17:01:44.181Z,92.31
2022-11-22T17:04:27.273Z,92.42
2022-11-22T17:06:57.916Z,92.10
2022-11-22T17:09:26.166Z,91.95
2022-11-22T17:11:55.057Z,91.97
2022-11-22T17:14:23.020Z,92.43
2022-11-22T17:16:51.279Z,91.98
2022-11-22T17:19:37.882Z,94.06
2022-11-22T17:22:07.623Z,92.16
2022-11-22T17:24:35.673Z,93.44
2022-11-22T17:27:03.646Z,92.20
2022-11-22T17:32:20.030Z,92.00
2022-11-22T17:34:48.280Z,93.71
2022-11-22T17:37:16.167Z,92.65
2022-11-22T17:39:44.136Z,93.55
2022-11-22T17:42:12.588Z,92.42
2022-11-22T17:44:40.581Z,92.13
2022-11-22T17:47:09.121Z,91.92
2022-11-22T17:49:37.169Z,93.28
2022-11-22T17:52:04.854Z,92.39
2022-11-22T17:54:32.549Z,95.21
2022-11-22T17:57:00.748Z,92.80
2022-11-22T17:59:28.693Z,92.33
2022-11-22T18:01:56.952Z,91.96
2022-11-22T18:04:28.300Z,92.86
2022-11-22T18:06:56.209Z,92.81
2022-11-22T18:09:27.000Z,92.60
2022-11-22T18:11:55.762Z,92.47
2022-11-22T18:14:23.747Z,92.15
2022-11-22T18:16:51.422Z,92.02
2022-11-22T18:19:19.653Z,91.83
2022-11-22T18:21:47.426Z,91.85
2022-11-22T18:24:15.277Z,92.64
2022-11-22T18:26:43.533Z,93.14
2022-11-22T18:32:04.225Z,92.41
2022-11-22T18:34:32.097Z,96.12
2022-11-22T18:37:02.439Z,95.12
2022-11-22T18:39:38.448Z,94.70
2022-11-22T18:42:13.343Z,94.14
2022-11-22T18:44:41.908Z,92.91
2022-11-22T18:47:10.311Z,92.14
2022-11-22T18:49:38.201Z,92.72
2022-11-22T18:52:06.493Z,92.63
2022-11-22T18:54:34.928Z,93.27
2022-11-22T18:57:02.907Z,93.74
2022-11-22T18:59:32.644Z,94.01
2022-11-22T19:02:00.534Z,93.23
2022-11-22T19:04:31.723Z,95.00
2022-11-22T19:07:00.245Z,93.67
2022-11-22T19:09:28.054Z,96.00
2022-11-22T19:11:58.683Z,94.50
2022-11-22T19:14:29.456Z,93.81
2022-11-22T19:16:57.779Z,96.12
2022-11-22T19:19:25.789Z,95.08
2022-11-22T19:21:53.990Z,93.11
2022-11-22T19:24:21.847Z,94.17
2022-11-22T19:26:49.666Z,94.34
2022-11-22T19:29:18.295Z,94.14
2022-11-22T19:31:46.321Z,96.25
2022-11-22T19:34:17.339Z,96.33
2022-11-22T19:36:45.668Z,97.03
2022-11-22T19:39:15.325Z,96.00
2022-11-22T19:41:44.914Z,99.46
2022-11-22T19:44:13.266Z,98.04
2022-11-22T19:46:41.897Z,99.05
2022-11-22T19:49:10.373Z,99.62
2022-11-22T19:51:39.307Z,99.65
2022-11-22T19:54:07.499Z,96.66
2022-11-22T19:56:39.286Z,97.36
2022-11-22T19:59:10.839Z,94.13
2022-11-22T20:01:40.022Z,96.31
2022-11-22T20:04:09.156Z,97.52
2022-11-22T20:06:40.315Z,97.26
2022-11-22T20:09:10.986Z,94.52
2022-11-22T20:11:42.780Z,93.20
2022-11-22T20:14:11.315Z,95.86
2022-11-22T20:16:41.934Z,95.78
2022-11-22T20:19:12.651Z,94.56
2022-11-22T20:21:41.016Z,95.40
2022-11-22T20:24:09.096Z,96.25
2022-11-22T20:26:37.430Z,96.76
2022-11-22T20:29:07.725Z,95.73
2022-11-22T20:31:37.436Z,96.57
2022-11-22T20:34:09.735Z,97.66
2022-11-22T20:36:37.608Z,97.18
2022-11-22T20:39:10.691Z,99.06
2022-11-22T20:41:41.590Z,98.72
2022-11-22T20:44:14.300Z,99.47
2022-11-22T20:46:42.372Z,96.67
2022-11-22T20:49:13.547Z,98.69
2022-11-22T20:51:42.583Z,94.90
2022-11-22T20:54:13.648Z,97.75
2022-11-22T20:56:41.481Z,94.20
2022-11-22T20:59:09.253Z,94.86
2022-11-22T21:01:37.683Z,93.48
2022-11-22T21:04:05.750Z,94.48
2022-11-22T21:06:34.888Z,94.83
2022-11-22T21:09:03.144Z,96.35
2022-11-22T21:11:33.704Z,96.16
2022-11-22T21:14:01.566Z,95.01
2022-11-22T21:16:30.991Z,97.27
2022-11-22T21:19:07.157Z,96.09
2022-11-22T21:21:36.740Z,97.70
2022-11-22T21:24:06.633Z,94.55
2022-11-22T21:26:35.042Z,98.90
2022-11-22T21:29:05.132Z,100.00
2022-11-22T21:31:32.907Z,100.00
2022-11-22T21:34:00.590Z,97.03
2022-11-22T21:36:28.881Z,97.91
2022-11-22T21:38:56.731Z,98.71
2022-11-22T21:41:39.336Z,95.67
2022-11-22T21:44:11.253Z,97.67
2022-11-22T21:46:39.179Z,100.00
2022-11-22T21:49:07.492Z,100.00
2022-11-22T21:51:35.641Z,96.82
2022-11-22T21:54:04.529Z,94.79
2022-11-22T21:56:35.267Z,96.13
2022-11-22T21:59:03.469Z,95.87
2022-11-22T22:01:31.766Z,96.79
2022-11-22T22:04:00.040Z,96.52
2022-11-22T22:06:27.862Z,95.93
2022-11-22T22:08:55.741Z,98.73
2022-11-22T22:11:26.738Z,95.49
2022-11-22T22:13:55.407Z,95.40
2022-11-22T22:16:24.419Z,95.20
2022-11-22T22:18:53.196Z,96.13
2022-11-22T22:21:21.633Z,96.45
2022-11-22T22:23:49.736Z,94.54
2022-11-22T22:26:20.763Z,94.84
2022-11-22T22:28:48.697Z,95.04
2022-11-22T22:31:24.407Z,94.10
2022-11-22T22:33:55.314Z,97.85
2022-11-22T22:36:25.736Z,95.81
2022-11-22T22:38:54.459Z,94.68
2022-11-22T22:41:22.593Z,94.82
2022-11-22T22:43:53.772Z,98.36
2022-11-22T22:46:25.099Z,98.82
2022-11-22T22:48:55.271Z,98.36
2022-11-22T22:51:32.879Z,96.98
2022-11-22T22:54:02.557Z,98.89
2022-11-22T22:56:31.852Z,98.50
2022-11-22T22:59:01.410Z,96.01
2022-11-22T23:01:32.453Z,94.40
2022-11-22T23:04:02.028Z,97.51
2022-11-22T23:06:33.078Z,94.56
2022-11-22T23:09:01.605Z,96.95
2022-11-22T23:11:50.256Z,95.47
2022-11-22T23:14:24.501Z,96.48
2022-11-22T23:16:57.948Z,96.51
2022-11-22T23:19:27.908Z,96.65
2022-11-22T23:21:56.457Z,95.38
2022-11-22T23:24:24.369Z,96.77
2022-11-22T23:26:55.656Z,95.67
2022-11-22T23:29:23.351Z,95.47
2022-11-22T23:31:51.402Z,97.65
2022-11-22T23:34:19.999Z,98.67
2022-11-22T23:36:48.044Z,98.82
2022-11-22T23:39:15.976Z,98.50
2022-11-22T23:41:45.370Z,98.31
2022-11-22T23:44:13.193Z,99.69
2022-11-22T23:46:40.898Z,100.00
2022-11-22T23:49:12.056Z,97.59
2022-11-22T23:51:39.857Z,98.04
2022-11-22T23:54:11.026Z,94.73
2022-11-22T23:56:39.358Z,95.36
2022-11-22T23:59:07.342Z,98.67
